createdAt,value
2017-10-04T00:00:29.695Z,88.40
2017-10-04T00:02:57.270Z,88.50
2017-10-04T00:05:24.841Z,88.50
2017-10-04T00:07:53.453Z,88.50
2017-10-04T00:10:20.997Z,88.50
2017-10-04T00:12:48.542Z,88.60
2017-10-04T00:15:19.998Z,88.60
2017-10-04T00:17:47.864Z,88.60
2017-10-04T00:20:15.409Z,88.60
2017-10-04T00:22:42.954Z,88.70
2017-10-04T00:25:10.531Z,89.40
2017-10-04T00:27:38.065Z,88.70
2017-10-04T00:30:06.665Z,88.70
2017-10-04T00:32:34.214Z,88.70
2017-10-04T00:35:01.800Z,88.70
2017-10-04T00:37:29.338Z,88.70
2017-10-04T00:39:56.977Z,88.70
2017-10-04T00:42:25.281Z,89.70
2017-10-04T00:44:53.045Z,89.70
2017-10-04T00:47:20.893Z,89.70
2017-10-04T00:49:49.237Z,89.70
2017-10-04T00:52:16.782Z,89.70
2017-10-04T00:54:44.359Z,89.70
2017-10-04T00:57:11.898Z,89.70
2017-10-04T00:59:39.570Z,89.70
2017-10-04T01:02:07.102Z,89.60
2017-10-04T01:04:35.094Z,89.70
2017-10-04T01:07:02.623Z,89.70
2017-10-04T01:09:30.158Z,89.70
2017-10-04T01:11:58.791Z,89.60
2017-10-04T01:14:26.325Z,89.60
2017-10-04T01:16:53.904Z,89.60
2017-10-04T01:19:23.075Z,89.50
2017-10-04T01:21:51.611Z,89.50
2017-10-04T01:24:19.160Z,89.50
2017-10-04T01:26:46.744Z,89.50
2017-10-04T01:29:14.273Z,89.50
2017-10-04T01:31:43.410Z,89.50
2017-10-04T01:34:11.718Z,89.70
2017-10-04T01:36:39.255Z,89.70
2017-10-04T01:39:07.595Z,89.70
2017-10-04T01:41:35.129Z,89.70
2017-10-04T01:44:02.706Z,89.60
2017-10-04T01:46:32.208Z,89.60
2017-10-04T01:49:00.525Z,89.70
2017-10-04T01:51:28.062Z,89.60
2017-10-04T01:53:55.785Z,89.70
2017-10-04T01:56:23.317Z,89.70
2017-10-04T01:58:51.659Z,89.70
2017-10-04T02:01:19.521Z,89.70
2017-10-04T02:03:47.058Z,89.70
2017-10-04T02:06:14.597Z,89.70
2017-10-04T02:08:42.268Z,89.70
2017-10-04T02:11:10.122Z,89.70
2017-10-04T02:13:38.424Z,89.90
2017-10-04T02:16:05.958Z,89.80
2017-10-04T02:18:34.797Z,89.90
2017-10-04T02:21:02.327Z,89.90
2017-10-04T02:23:29.861Z,90.00
2017-10-04T02:25:58.707Z,90.00
2017-10-04T02:28:26.238Z,90.00
2017-10-04T02:30:53.773Z,90.00
2017-10-04T02:33:22.109Z,90.00
2017-10-04T02:35:49.648Z,90.00
2017-10-04T02:38:17.543Z,90.00
2017-10-04T02:40:45.075Z,90.00
2017-10-04T02:43:12.609Z,90.00
2017-10-04T02:45:40.182Z,90.00
2017-10-04T02:48:07.977Z,90.00
2017-10-04T02:50:35.843Z,90.00
2017-10-04T02:53:03.379Z,90.00
2017-10-04T02:55:30.923Z,90.00
2017-10-04T02:57:58.546Z,90.00
2017-10-04T03:00:26.081Z,90.00
2017-10-04T03:02:53.849Z,90.00
2017-10-04T03:05:21.420Z,90.00
2017-10-04T03:07:49.376Z,90.30
2017-10-04T03:10:16.907Z,90.10
2017-10-04T03:12:44.449Z,90.10
2017-10-04T03:15:13.085Z,90.10
2017-10-04T03:17:40.625Z,90.10
2017-10-04T03:20:08.153Z,90.10
2017-10-04T03:22:36.742Z,90.10
2017-10-04T03:25:05.963Z,90.10
2017-10-04T03:27:33.502Z,90.10
2017-10-04T03:30:01.042Z,90.10
2017-10-04T03:32:29.577Z,90.10
2017-10-04T03:34:57.145Z,90.10
2017-10-04T03:37:24.673Z,90.10
2017-10-04T03:39:52.247Z,90.10
2017-10-04T03:42:19.778Z,90.10
2017-10-04T03:44:48.512Z,90.10
2017-10-04T03:47:16.056Z,90.10
2017-10-04T03:49:43.937Z,90.10
2017-10-04T03:52:11.466Z,90.10
2017-10-04T03:54:39.470Z,90.10
2017-10-04T03:57:07.012Z,90.20
2017-10-04T03:59:34.551Z,90.20
2017-10-04T04:02:02.128Z,90.20
2017-10-04T04:04:29.912Z,90.20
2017-10-04T04:06:57.441Z,90.20
2017-10-04T04:09:25.045Z,90.20
2017-10-04T04:11:52.578Z,90.50
2017-10-04T04:14:20.117Z,90.20
2017-10-04T04:16:47.681Z,90.20
2017-10-04T04:19:16.870Z,90.20
2017-10-04T04:21:44.409Z,90.20
2017-10-04T04:24:12.717Z,90.20
2017-10-04T04:26:40.614Z,90.20
2017-10-04T04:29:08.452Z,90.30
2017-10-04T04:31:35.981Z,90.30
2017-10-04T04:34:04.285Z,90.30
2017-10-04T04:36:31.930Z,90.30
2017-10-04T04:39:00.309Z,90.30
2017-10-04T04:41:28.604Z,90.40
2017-10-04T04:43:56.182Z,90.30
2017-10-04T04:46:23.852Z,90.30
2017-10-04T04:48:51.693Z,90.30
2017-10-04T04:51:19.224Z,90.30
2017-10-04T04:53:47.529Z,90.40
2017-10-04T04:56:15.255Z,90.40
2017-10-04T04:58:42.791Z,90.40
2017-10-04T05:01:10.373Z,90.50
2017-10-04T05:03:37.913Z,90.80
2017-10-04T05:06:05.492Z,90.50
2017-10-04T05:08:33.029Z,90.60
2017-10-04T05:11:00.761Z,90.50
2017-10-04T05:13:28.307Z,90.50
2017-10-04T05:15:55.890Z,90.50
2017-10-04T05:18:23.434Z,90.50
2017-10-04T05:20:51.341Z,90.50
2017-10-04T05:23:19.162Z,90.60
2017-10-04T05:25:46.733Z,90.60
2017-10-04T05:28:14.274Z,90.60
2017-10-04T05:30:42.825Z,90.70
2017-10-04T05:33:13.272Z,90.60
2017-10-04T05:35:41.628Z,90.70
2017-10-04T05:38:09.170Z,90.70
2017-10-04T05:40:36.717Z,90.70
2017-10-04T05:43:04.294Z,90.70
2017-10-04T05:45:31.830Z,90.70
2017-10-04T05:48:00.014Z,90.80
2017-10-04T05:50:27.559Z,90.80
2017-10-04T05:52:55.139Z,90.70
2017-10-04T05:55:22.691Z,90.70
2017-10-04T05:57:50.426Z,90.70
2017-10-04T06:00:18.733Z,90.70
2017-10-04T06:02:46.262Z,90.70
2017-10-04T06:05:14.671Z,90.70
2017-10-04T06:07:42.249Z,90.70
2017-10-04T06:10:09.803Z,90.70
2017-10-04T06:12:37.389Z,90.70
2017-10-04T06:15:04.929Z,90.70
2017-10-04T06:17:32.505Z,90.60
2017-10-04T06:20:02.103Z,90.60
2017-10-04T06:22:29.808Z,90.60
2017-10-04T06:24:58.122Z,90.60
2017-10-04T06:27:25.697Z,90.60
2017-10-04T06:29:53.237Z,90.60
2017-10-04T06:32:20.817Z,90.60
2017-10-04T06:34:48.359Z,90.60
2017-10-04T06:37:16.005Z,90.70
2017-10-04T06:39:43.556Z,90.70
2017-10-04T06:42:11.950Z,90.70
2017-10-04T06:44:39.493Z,90.60
2017-10-04T06:47:07.889Z,90.70
2017-10-04T06:49:35.458Z,90.70
2017-10-04T06:52:03.000Z,90.70
2017-10-04T06:54:30.536Z,90.60
2017-10-04T06:56:58.941Z,90.70
2017-10-04T06:59:26.521Z,90.60
2017-10-04T07:01:54.096Z,90.60
2017-10-04T07:04:21.629Z,90.60
2017-10-04T07:06:49.229Z,90.10
2017-10-04T07:09:16.807Z,90.10
2017-10-04T07:11:44.518Z,90.00
2017-10-04T07:14:12.069Z,90.00
2017-10-04T07:16:39.612Z,90.00
2017-10-04T07:19:08.329Z,89.90
2017-10-04T07:21:35.877Z,89.80
2017-10-04T07:24:03.563Z,89.80
2017-10-04T07:26:34.206Z,89.70
2017-10-04T07:29:01.754Z,89.60
2017-10-04T07:31:29.292Z,89.50
2017-10-04T07:33:56.868Z,89.40
2017-10-04T07:36:24.410Z,89.40
2017-10-04T07:38:52.061Z,89.40
2017-10-04T07:41:19.606Z,89.20
2017-10-04T07:43:47.957Z,89.10
2017-10-04T07:46:15.493Z,88.90
2017-10-04T07:48:43.190Z,88.90
2017-10-04T07:51:10.768Z,88.80
2017-10-04T07:53:39.069Z,88.70
2017-10-04T07:56:06.716Z,88.60
2017-10-04T07:58:35.063Z,88.60
2017-10-04T08:01:02.609Z,88.40
2017-10-04T08:03:30.165Z,88.40
2017-10-04T08:05:57.752Z,88.30
2017-10-04T08:08:25.338Z,88.10
2017-10-04T08:10:53.649Z,87.80
2017-10-04T08:13:21.438Z,87.70
2017-10-04T08:15:48.994Z,87.60
2017-10-04T08:18:16.566Z,87.40
2017-10-04T08:20:44.149Z,87.20
2017-10-04T08:23:13.845Z,87.10
2017-10-04T08:25:41.389Z,86.90
2017-10-04T08:28:09.465Z,86.90
2017-10-04T08:30:37.015Z,86.70
2017-10-04T08:33:04.653Z,86.60
2017-10-04T08:35:32.198Z,86.50
2017-10-04T08:37:59.781Z,86.40
2017-10-04T08:40:27.328Z,86.10
2017-10-04T08:42:55.017Z,85.90
2017-10-04T08:45:22.609Z,85.50
2017-10-04T08:47:57.071Z,85.40
2017-10-04T08:50:24.654Z,85.60
2017-10-04T08:52:52.193Z,84.90
2017-10-04T08:55:20.090Z,84.50
2017-10-04T08:57:47.634Z,84.10
2017-10-04T09:00:15.186Z,83.70
2017-10-04T09:02:42.773Z,83.80
2017-10-04T09:05:22.250Z,83.70
2017-10-04T09:07:50.549Z,83.30
2017-10-04T09:10:18.576Z,83.30
2017-10-04T09:12:46.121Z,83.10
2017-10-04T09:15:13.653Z,82.80
2017-10-04T09:17:41.390Z,82.70
2017-10-04T09:20:09.693Z,82.30
2017-10-04T09:22:37.591Z,82.30
2017-10-04T09:25:05.136Z,82.00
2017-10-04T09:27:32.753Z,81.80
2017-10-04T09:30:01.088Z,81.40
2017-10-04T09:32:28.817Z,81.40
2017-10-04T09:34:56.370Z,81.30
2017-10-04T09:37:23.997Z,81.20
2017-10-04T09:39:51.938Z,81.20
2017-10-04T09:42:19.482Z,80.90
2017-10-04T09:44:47.035Z,80.80
2017-10-04T09:47:14.908Z,80.70
2017-10-04T09:49:42.484Z,80.40
2017-10-04T09:52:10.050Z,80.30
2017-10-04T09:54:43.133Z,80.10
2017-10-04T09:57:10.677Z,79.90
2017-10-04T09:59:38.990Z,79.50
2017-10-04T10:02:06.578Z,79.50
2017-10-04T10:04:34.897Z,78.90
2017-10-04T10:07:02.478Z,78.80
2017-10-04T10:09:30.017Z,78.70
2017-10-04T10:11:57.758Z,78.70
2017-10-04T10:14:26.746Z,78.20
2017-10-04T10:16:54.666Z,78.30
2017-10-04T10:19:21.862Z,78.10
2017-10-04T10:21:49.569Z,77.50
2017-10-04T10:24:19.597Z,77.60
2017-10-04T10:26:47.137Z,77.20
2017-10-04T10:29:14.869Z,77.10
2017-10-04T10:31:42.422Z,77.10
2017-10-04T10:34:10.797Z,76.80
2017-10-04T10:36:39.113Z,77.00
2017-10-04T10:39:06.677Z,76.90
2017-10-04T10:41:34.253Z,76.90
2017-10-04T10:44:01.982Z,76.70
2017-10-04T10:46:29.521Z,76.70
2017-10-04T10:48:59.338Z,76.30
2017-10-04T10:51:28.249Z,76.10
2017-10-04T10:53:55.789Z,76.10
2017-10-04T10:56:24.133Z,75.70
2017-10-04T10:58:51.673Z,75.60
2017-10-04T11:01:19.644Z,75.70
2017-10-04T11:03:47.258Z,75.70
2017-10-04T11:06:15.566Z,75.30
2017-10-04T11:08:43.330Z,75.30
2017-10-04T11:11:11.219Z,75.10
2017-10-04T11:13:38.769Z,75.20
2017-10-04T11:16:06.310Z,75.00
2017-10-04T11:18:34.625Z,75.00
2017-10-04T11:21:02.175Z,74.90
2017-10-04T11:23:29.718Z,74.70
2017-10-04T11:25:57.575Z,74.40
2017-10-04T11:28:25.115Z,74.00
2017-10-04T11:30:52.981Z,73.40
2017-10-04T11:33:21.304Z,73.20
2017-10-04T11:35:48.838Z,73.20
2017-10-04T11:38:16.414Z,72.90
2017-10-04T11:40:44.722Z,72.70
2017-10-04T11:43:12.612Z,72.70
2017-10-04T11:45:40.925Z,72.60
2017-10-04T11:48:08.457Z,72.60
2017-10-04T11:50:36.944Z,71.90
2017-10-04T11:53:04.522Z,71.90
2017-10-04T11:55:32.078Z,71.40
2017-10-04T11:57:59.714Z,70.90
2017-10-04T12:00:28.021Z,70.20
2017-10-04T12:02:55.675Z,70.20
2017-10-04T12:05:23.208Z,70.00
2017-10-04T12:07:51.957Z,69.30
2017-10-04T12:10:19.499Z,69.30
2017-10-04T12:12:47.803Z,68.60
2017-10-04T12:15:15.372Z,68.60
2017-10-04T12:17:42.974Z,68.70
2017-10-04T12:20:10.514Z,68.70
2017-10-04T12:22:39.010Z,68.30
2017-10-04T12:25:08.841Z,67.90
2017-10-04T12:27:36.422Z,67.90
2017-10-04T12:30:03.958Z,67.70
2017-10-04T12:32:34.010Z,67.90
2017-10-04T12:35:01.551Z,67.80
2017-10-04T12:37:29.108Z,68.00
2017-10-04T12:39:57.466Z,67.10
2017-10-04T12:42:28.920Z,67.10
2017-10-04T12:44:57.751Z,67.40
2017-10-04T12:47:29.066Z,67.50
2017-10-04T12:49:56.597Z,67.60
2017-10-04T12:52:24.941Z,66.90
2017-10-04T12:54:52.901Z,66.80
2017-10-04T12:57:20.429Z,66.40
2017-10-04T12:59:47.962Z,66.00
2017-10-04T13:02:16.473Z,65.10
2017-10-04T13:04:44.063Z,65.10
2017-10-04T13:07:11.597Z,65.00
2017-10-04T13:09:39.496Z,64.70
2017-10-04T13:12:07.034Z,65.00
2017-10-04T13:14:34.576Z,65.30
2017-10-04T13:17:02.243Z,65.60
2017-10-04T13:19:29.786Z,65.80
2017-10-04T13:21:57.623Z,65.90
2017-10-04T13:24:25.160Z,65.70
2017-10-04T13:26:52.743Z,65.60
2017-10-04T13:29:20.322Z,65.40
2017-10-04T13:31:48.662Z,65.90
2017-10-04T13:34:16.463Z,65.80
2017-10-04T13:36:44.765Z,66.00
2017-10-04T13:39:12.360Z,65.90
2017-10-04T13:41:39.905Z,66.00
2017-10-04T13:44:07.450Z,65.70
2017-10-04T13:46:35.456Z,65.80
2017-10-04T13:49:03.483Z,64.40
2017-10-04T13:51:31.025Z,64.70
2017-10-04T13:53:59.334Z,64.90
2017-10-04T13:56:27.109Z,64.70
2017-10-04T13:58:54.653Z,64.80
2017-10-04T14:01:22.245Z,64.60
2017-10-04T14:03:49.779Z,64.80
2017-10-04T14:06:17.377Z,64.90
2017-10-04T14:08:44.927Z,65.30
2017-10-04T14:11:13.184Z,65.20
2017-10-04T14:13:40.738Z,65.20
2017-10-04T14:16:08.298Z,64.90
2017-10-04T14:18:36.050Z,64.90
2017-10-04T14:21:03.586Z,65.00
2017-10-04T14:23:31.893Z,65.40
2017-10-04T14:25:59.507Z,65.40
2017-10-04T14:28:27.153Z,65.80
2017-10-04T14:30:54.701Z,65.50
2017-10-04T14:33:22.282Z,65.40
2017-10-04T14:35:49.817Z,65.40
2017-10-04T14:38:17.402Z,65.30
2017-10-04T14:40:45.354Z,65.10
2017-10-04T14:43:12.886Z,65.10
2017-10-04T14:45:40.422Z,65.10
2017-10-04T14:48:11.746Z,65.40
2017-10-04T14:50:39.954Z,65.30
2017-10-04T14:53:07.760Z,65.20
2017-10-04T14:55:35.340Z,65.20
2017-10-04T14:58:02.890Z,65.40
2017-10-04T15:00:30.478Z,65.40
2017-10-04T15:03:01.286Z,65.10
2017-10-04T15:05:28.828Z,65.10
2017-10-04T15:07:56.557Z,65.20
2017-10-04T15:10:24.900Z,65.60
2017-10-04T15:12:52.445Z,65.40
2017-10-04T15:15:20.076Z,65.40
2017-10-04T15:17:47.648Z,65.50
2017-10-04T15:20:15.229Z,65.60
2017-10-04T15:22:42.768Z,65.50
2017-10-04T15:25:10.461Z,65.50
2017-10-04T15:27:38.013Z,65.70
2017-10-04T15:30:05.595Z,65.60
2017-10-04T15:32:33.345Z,65.60
2017-10-04T15:35:02.122Z,65.90
2017-10-04T15:37:29.664Z,65.90
2017-10-04T15:39:57.202Z,65.70
2017-10-04T15:42:24.849Z,65.90
2017-10-04T15:44:53.228Z,66.30
2017-10-04T15:47:20.789Z,66.10
2017-10-04T15:49:49.871Z,66.20
2017-10-04T15:52:17.929Z,66.20
2017-10-04T15:54:45.826Z,66.20
2017-10-04T15:57:14.183Z,66.40
2017-10-04T15:59:41.856Z,66.20
2017-10-04T16:02:09.531Z,66.30
2017-10-04T16:04:37.839Z,66.80
2017-10-04T16:07:05.777Z,66.80
2017-10-04T16:09:34.083Z,67.10
2017-10-04T16:12:01.626Z,67.00
2017-10-04T16:14:29.629Z,67.10
2017-10-04T16:16:57.163Z,67.10
2017-10-04T16:19:24.699Z,67.30
2017-10-04T16:21:54.777Z,67.60
2017-10-04T16:24:22.309Z,67.60
2017-10-04T16:26:49.896Z,67.50
2017-10-04T16:29:17.435Z,67.60
2017-10-04T16:31:47.465Z,67.80
2017-10-04T16:34:15.042Z,68.00
2017-10-04T16:36:42.670Z,68.10
2017-10-04T16:39:10.229Z,68.30
2017-10-04T16:41:40.305Z,68.40
2017-10-04T16:44:08.610Z,68.90
2017-10-04T16:46:36.163Z,68.70
2017-10-04T16:49:04.514Z,68.80
2017-10-04T16:51:32.103Z,68.80
2017-10-04T16:54:00.833Z,68.80
2017-10-04T16:56:28.382Z,68.80
2017-10-04T16:58:55.924Z,68.80
2017-10-04T17:01:23.946Z,69.10
2017-10-04T17:03:51.486Z,69.20
2017-10-04T17:06:19.030Z,69.50
2017-10-04T17:08:46.622Z,69.70
2017-10-04T17:11:14.167Z,69.90
2017-10-04T17:13:41.746Z,70.10
2017-10-04T17:16:09.286Z,70.40
2017-10-04T17:18:37.157Z,70.50
2017-10-04T17:21:04.707Z,70.70
2017-10-04T17:23:33.934Z,70.80
2017-10-04T17:26:01.478Z,70.60
2017-10-04T17:28:29.022Z,70.60
2017-10-04T17:30:56.606Z,70.80
2017-10-04T17:33:24.157Z,70.90
2017-10-04T17:35:54.373Z,70.90
2017-10-04T17:38:21.911Z,71.10
2017-10-04T17:40:49.493Z,71.10
2017-10-04T17:43:17.036Z,71.10
2017-10-04T17:45:44.621Z,71.10
2017-10-04T17:48:12.177Z,71.20
2017-10-04T17:50:40.053Z,71.30
2017-10-04T17:53:07.594Z,71.20
2017-10-04T17:55:35.180Z,71.30
2017-10-04T17:58:02.766Z,71.50
2017-10-04T18:00:31.074Z,71.80
2017-10-04T18:02:59.980Z,71.70
2017-10-04T18:05:27.522Z,71.80
2017-10-04T18:07:55.058Z,71.90
2017-10-04T18:10:23.556Z,71.80
2017-10-04T18:12:51.141Z,71.80
2017-10-04T18:15:18.682Z,71.70
2017-10-04T18:17:46.342Z,71.80
2017-10-04T18:20:14.230Z,72.00
2017-10-04T18:22:41.874Z,72.00
2017-10-04T18:25:10.215Z,72.10
2017-10-04T18:27:37.866Z,72.20
2017-10-04T18:30:05.417Z,72.40
2017-10-04T18:32:33.017Z,72.50
2017-10-04T18:35:00.600Z,72.50
2017-10-04T18:37:28.200Z,72.50
2017-10-04T18:39:55.797Z,72.60
2017-10-04T18:42:24.437Z,72.60
2017-10-04T18:44:51.982Z,72.50
2017-10-04T18:47:19.569Z,72.50
2017-10-04T18:49:47.119Z,72.80
2017-10-04T18:52:17.102Z,72.90
2017-10-04T18:54:44.645Z,72.90
2017-10-04T18:57:12.230Z,72.80
2017-10-04T18:59:40.534Z,72.90
2017-10-04T19:02:08.257Z,72.90
2017-10-04T19:04:35.838Z,73.00
2017-10-04T19:07:03.375Z,73.10
2017-10-04T19:09:30.974Z,73.20
2017-10-04T19:11:58.518Z,73.30
2017-10-04T19:14:26.416Z,73.20
2017-10-04T19:16:53.982Z,73.20
2017-10-04T19:19:21.537Z,73.10
2017-10-04T19:21:49.795Z,73.10
2017-10-04T19:24:17.363Z,73.20
2017-10-04T19:26:44.945Z,73.10
2017-10-04T19:29:12.601Z,73.10
2017-10-04T19:31:40.149Z,73.20
2017-10-04T19:34:07.738Z,73.10
2017-10-04T19:36:36.085Z,73.40
2017-10-04T19:39:03.640Z,73.40
2017-10-04T19:41:31.290Z,73.50
2017-10-04T19:43:58.826Z,73.60
2017-10-04T19:46:26.406Z,73.70
2017-10-04T19:48:53.950Z,73.70
2017-10-04T19:51:21.920Z,73.70
2017-10-04T19:53:49.467Z,73.60
2017-10-04T19:56:17.010Z,73.70
2017-10-04T19:58:45.444Z,73.70
2017-10-04T20:01:12.977Z,73.70
2017-10-04T20:03:40.556Z,73.80
2017-10-04T20:06:08.097Z,73.80
2017-10-04T20:08:35.729Z,73.80
2017-10-04T20:11:04.078Z,73.90
2017-10-04T20:13:31.614Z,73.80
2017-10-04T20:15:59.506Z,73.90
2017-10-04T20:18:27.052Z,73.80
2017-10-04T20:20:54.779Z,73.90
2017-10-04T20:23:23.097Z,74.00
2017-10-04T20:25:50.637Z,74.10
2017-10-04T20:28:18.179Z,74.10
2017-10-04T20:30:46.373Z,74.20
2017-10-04T20:33:14.072Z,74.30
2017-10-04T20:35:42.409Z,74.30
2017-10-04T20:38:09.953Z,74.30
2017-10-04T20:40:37.541Z,74.40
2017-10-04T20:43:05.121Z,74.60
2017-10-04T20:45:33.169Z,74.60
2017-10-04T20:48:01.601Z,74.60
2017-10-04T20:50:29.911Z,74.80
2017-10-04T20:52:57.807Z,74.70
2017-10-04T20:55:25.523Z,74.70
2017-10-04T20:57:53.069Z,74.70
2017-10-04T21:00:21.417Z,74.70
2017-10-04T21:02:48.953Z,74.70
2017-10-04T21:05:21.651Z,74.70
2017-10-04T21:07:49.193Z,74.50
2017-10-04T21:10:16.778Z,74.60
2017-10-04T21:12:44.312Z,74.60
2017-10-04T21:15:11.917Z,74.60
2017-10-04T21:17:40.279Z,74.70
2017-10-04T21:20:07.842Z,74.60
2017-10-04T21:22:35.573Z,74.50
2017-10-04T21:25:03.896Z,74.50
2017-10-04T21:27:31.590Z,74.50
2017-10-04T21:29:59.149Z,74.40
2017-10-04T21:32:26.734Z,74.30
2017-10-04T21:34:54.282Z,74.30
2017-10-04T21:37:21.861Z,74.20
2017-10-04T21:39:49.406Z,74.30
2017-10-04T21:42:17.294Z,74.20
2017-10-04T21:44:44.832Z,74.30
2017-10-04T21:47:12.460Z,74.30
2017-10-04T21:49:41.020Z,74.30
2017-10-04T21:52:08.648Z,74.30
2017-10-04T21:54:36.199Z,74.30
2017-10-04T21:57:04.020Z,74.40
2017-10-04T21:59:31.554Z,75.10
2017-10-04T22:01:59.098Z,74.70
2017-10-04T22:04:27.049Z,74.60
2017-10-04T22:06:54.586Z,74.80
2017-10-04T22:09:22.886Z,74.80
2017-10-04T22:11:50.466Z,74.80
2017-10-04T22:14:18.008Z,74.70
2017-10-04T22:16:45.861Z,74.70
2017-10-04T22:19:17.256Z,74.70
2017-10-04T22:21:44.848Z,74.70
2017-10-04T22:24:17.431Z,74.80
2017-10-04T22:26:47.569Z,75.00
2017-10-04T22:31:57.079Z,75.90
2017-10-04T22:34:29.356Z,75.10
2017-10-04T22:36:58.237Z,75.00
2017-10-04T22:42:05.951Z,75.30
2017-10-04T22:44:39.166Z,75.10
2017-10-04T22:47:12.646Z,75.20
2017-10-04T22:50:18.517Z,75.20
2017-10-04T22:52:47.188Z,75.30
2017-10-04T22:58:04.290Z,75.20
2017-10-04T23:03:40.990Z,75.50
2017-10-04T23:08:59.480Z,75.50
2017-10-04T23:11:27.024Z,75.60
2017-10-04T23:13:54.561Z,75.60
2017-10-04T23:16:22.469Z,75.90
2017-10-04T23:18:50.007Z,75.90
2017-10-04T23:21:17.589Z,75.90
2017-10-04T23:23:46.105Z,76.10
2017-10-04T23:26:14.761Z,76.20
2017-10-04T23:28:42.292Z,76.20
2017-10-04T23:31:09.843Z,76.40
2017-10-04T23:33:38.342Z,76.70
2017-10-04T23:36:05.886Z,76.90
2017-10-04T23:38:33.442Z,76.90
2017-10-04T23:41:01.346Z,77.60
2017-10-04T23:43:28.878Z,76.90
2017-10-04T23:45:56.410Z,77.10
2017-10-04T23:48:25.660Z,76.90
2017-10-04T23:50:53.199Z,76.90
2017-10-04T23:53:20.870Z,77.00
2017-10-04T23:55:48.459Z,76.90
2017-10-04T23:58:16.045Z,77.00
